KDDC/DDC METAR and TAF weather

Enter ICAO airport designator
Station Type Date Time Source
KDDC METAR 2020/01/19 22:52 UTC NOAA

KDDC 192252Z AUTO 08007KT 10SM CLR 05/M03 A3045 RMK AO2 SLP327 T00501033


Station Type Date Time Source
KDDC Decoded METAR 2020/01/19 22:52 UTC NOAA

DODGE CITY REGIONAL AIRPORT, KS, United States (KDDC) 37-46N 99-58W 789M
Jan 19, 2020 - 05:52 PM EST / 2020.01.19 2252 UTC
Wind: from the E (080 degrees) at 8 MPH (7 KT):0
Visibility: 10 mile(s):0
Sky conditions: clear
Temperature: 41.0 F (5.0 C)
Dew Point: 26.1 F (-3.3 C)
Relative Humidity: 54%
Pressure (altimeter): 30.45 in. Hg (1031 hPa)
ob: KDDC 192252Z AUTO 08007KT 10SM CLR 05/M03 A3045 RMK AO2 SLP327 T00501033
cycle: 23

Station Type Date Time Source
KDDC TAF 2020/01/19 18:24 UTC NOAA

TAF KDDC 191723Z 1918/2018 05006KT P6SM FEW250

Example: see airport list